Pagrindinis puslapis
METAR-TAF:

METAR-TAF

Oro uostai :

Kairas, Egiptas

platuma: 30-08N, ilguma: 031-24E, Aukštis: 64 m

Dabartinis oras

Ataskaita buvo paskelbta 28 minutes, ne 04:30 UTC
Ramus vėjas
Temperatūra 23°C
Drėgmė 78%
Slėgis 1014 hPa
Matomumas: 6000 m

METAR: HECA 180430Z 00000KT 6000 NSC 23/19 Q1014 NOSIG

Laikas: 06:58 (04:58 UTC)

Prognozė

Ataskaita buvo paskelbta 5 valandos ir 58 minutes, ne 23:00 UTC
Prognozė galioja nuo 18 metu 00 UTC su 19 metu 06 UTC
Vėjas 9 kt iš Šiaurės/Šiaurės Rytų
Matomumas 10 km arba daugiau
Išsisklaidę debesys ne aukštis 2500 ft
Tikimybė 40%
nuo 18 metu 00 UTC su 18 metu 08 UTC
Matomumas: 4000 m
rūkana

TAF: HECA 172300Z 1800/1906 02009KT 9999 SCT025 PROB40 1800/1808 4000 BR NSC

Orai ataskaitas ir orų prognozės (METAR, TAF).

turimą stotys yra geltonos ir raudonos taškus žemėlapyje.

Perkelti pele per norėdami pamatyti stoties vardą.

Tada spustelėkite, norėdami matyti oro stebėjimo ir prognozės.

Norėdami pakeisti žemėlapį: spustelėkite ant žalios mygtukų su juodo kryžiaus žemyn,; žalią mygtuką su brūkšneliu, jei norite nutolinti; arba žalių rodyklių gretimoms žemėlapius.


METAR-TAF: